createdAt,value
2017-08-09T00:00:13.043Z,18.90
2017-08-09T00:02:41.208Z,19.00
2017-08-09T00:05:09.381Z,19.00
2017-08-09T00:07:37.563Z,19.10
2017-08-09T00:10:05.717Z,19.10
2017-08-09T00:12:33.893Z,19.00
2017-08-09T00:15:02.084Z,19.10
2017-08-09T00:17:30.256Z,19.10
2017-08-09T00:19:58.407Z,19.20
2017-08-09T00:22:26.591Z,19.20
2017-08-09T00:24:54.773Z,19.30
2017-08-09T00:27:22.946Z,19.20
2017-08-09T00:29:51.132Z,19.10
2017-08-09T00:32:19.311Z,19.10
2017-08-09T00:34:47.514Z,19.10
2017-08-09T00:37:15.698Z,19.10
2017-08-09T00:39:44.647Z,19.00
2017-08-09T00:42:12.814Z,19.00
2017-08-09T00:44:40.987Z,18.90
2017-08-09T00:47:09.147Z,18.80
2017-08-09T00:49:37.295Z,18.80
2017-08-09T00:52:06.237Z,18.70
2017-08-09T00:54:34.385Z,18.70
2017-08-09T00:57:02.534Z,18.70
2017-08-09T00:59:31.506Z,18.60
2017-08-09T01:01:59.665Z,18.50
2017-08-09T01:04:27.842Z,18.50
2017-08-09T01:06:56.032Z,18.60
2017-08-09T01:09:24.201Z,18.70
2017-08-09T01:11:52.367Z,18.70
2017-08-09T01:14:20.554Z,18.70
2017-08-09T01:16:48.724Z,18.50
2017-08-09T01:19:16.892Z,18.60
2017-08-09T01:21:45.062Z,18.60
2017-08-09T01:24:13.233Z,18.60
2017-08-09T01:26:41.390Z,18.60
2017-08-09T01:29:09.590Z,18.60
2017-08-09T01:31:37.753Z,18.50
2017-08-09T01:34:05.910Z,18.40
2017-08-09T01:36:34.098Z,18.30
2017-08-09T01:39:02.250Z,18.20
2017-08-09T01:41:30.399Z,18.20
2017-08-09T01:43:59.348Z,18.20
2017-08-09T01:46:27.502Z,18.10
2017-08-09T01:48:55.677Z,18.10
2017-08-09T01:51:23.851Z,18.00
2017-08-09T01:53:52.034Z,18.00
2017-08-09T01:56:20.210Z,18.00
2017-08-09T01:58:48.405Z,18.00
2017-08-09T02:01:16.578Z,18.00
2017-08-09T02:03:44.759Z,18.00
2017-08-09T02:06:12.961Z,17.90
2017-08-09T02:08:41.901Z,18.00
2017-08-09T02:11:10.058Z,18.00
2017-08-09T02:13:38.239Z,17.90
2017-08-09T02:16:06.390Z,17.80
2017-08-09T02:18:34.573Z,17.80
2017-08-09T02:21:02.778Z,17.90
2017-08-09T02:23:30.923Z,18.00
2017-08-09T02:25:59.104Z,17.90
2017-08-09T02:28:27.311Z,17.90
2017-08-09T02:30:55.461Z,17.70
2017-08-09T02:33:23.644Z,17.80
2017-08-09T02:35:51.832Z,17.80
2017-08-09T02:38:20.004Z,17.90
2017-08-09T02:40:48.177Z,17.80
2017-08-09T02:43:16.378Z,17.90
2017-08-09T02:45:44.529Z,17.90
2017-08-09T02:48:12.698Z,17.80
2017-08-09T02:50:40.902Z,17.90
2017-08-09T02:53:09.069Z,17.90
2017-08-09T02:55:37.226Z,17.90
2017-08-09T02:58:05.427Z,17.90
2017-08-09T03:00:33.581Z,17.90
2017-08-09T03:03:01.730Z,17.70
2017-08-09T03:05:29.909Z,17.70
2017-08-09T03:07:58.066Z,17.60
2017-08-09T03:10:26.218Z,17.40
2017-08-09T03:12:55.286Z,17.30
2017-08-09T03:15:23.451Z,17.30
2017-08-09T03:17:51.629Z,17.30
2017-08-09T03:20:19.807Z,17.30
2017-08-09T03:22:47.981Z,17.30
2017-08-09T03:25:16.130Z,17.40
2017-08-09T03:27:44.334Z,17.50
2017-08-09T03:30:12.487Z,17.50
2017-08-09T03:32:40.640Z,17.40
2017-08-09T03:35:08.844Z,17.40
2017-08-09T03:37:37.002Z,17.40
2017-08-09T03:40:05.182Z,17.30
2017-08-09T03:42:33.358Z,17.30
2017-08-09T03:45:01.532Z,17.40
2017-08-09T03:47:29.705Z,17.30
2017-08-09T03:49:57.894Z,17.20
2017-08-09T03:52:26.072Z,17.40
2017-08-09T03:54:54.244Z,17.30
2017-08-09T03:57:22.445Z,17.40
2017-08-09T03:59:51.374Z,17.50
2017-08-09T04:02:19.545Z,17.40
2017-08-09T04:04:47.728Z,17.20
2017-08-09T04:07:15.879Z,17.30
2017-08-09T04:09:44.814Z,17.30
2017-08-09T04:12:13.012Z,17.30
2017-08-09T04:14:41.182Z,17.30
2017-08-09T04:17:09.358Z,17.30
2017-08-09T04:19:37.560Z,17.30
2017-08-09T04:22:05.708Z,17.10
2017-08-09T04:24:33.866Z,17.20
2017-08-09T04:27:02.062Z,17.20
2017-08-09T04:29:30.234Z,17.20
2017-08-09T04:31:58.408Z,17.20
2017-08-09T04:34:26.632Z,17.20
2017-08-09T04:36:55.577Z,17.10
2017-08-09T04:39:23.761Z,17.10
2017-08-09T04:41:51.964Z,17.10
2017-08-09T04:44:20.111Z,17.10
2017-08-09T04:46:48.262Z,17.10
2017-08-09T04:49:16.470Z,17.00
2017-08-09T04:51:44.622Z,16.90
2017-08-09T04:54:12.797Z,16.90
2017-08-09T04:56:40.986Z,17.00
2017-08-09T04:59:09.141Z,17.20
2017-08-09T05:01:37.310Z,17.30
2017-08-09T05:04:05.513Z,17.40
2017-08-09T05:06:33.684Z,17.30
2017-08-09T05:09:01.900Z,17.30
2017-08-09T05:11:30.857Z,17.30
2017-08-09T05:13:59.006Z,17.30
2017-08-09T05:16:27.176Z,17.30
2017-08-09T05:18:55.373Z,17.20
2017-08-09T05:21:23.540Z,17.20
2017-08-09T05:23:51.695Z,17.10
2017-08-09T05:26:19.879Z,17.20
2017-08-09T05:28:48.032Z,17.30
2017-08-09T05:31:16.189Z,17.30
2017-08-09T05:33:45.148Z,17.40
2017-08-09T05:36:13.305Z,17.40
2017-08-09T05:38:41.479Z,17.50
2017-08-09T05:41:09.676Z,17.70
2017-08-09T05:43:37.852Z,17.80
2017-08-09T05:46:06.008Z,17.90
2017-08-09T05:48:34.205Z,17.90
2017-08-09T05:51:02.365Z,18.00
2017-08-09T05:53:30.521Z,18.00
2017-08-09T05:55:58.726Z,18.00
2017-08-09T05:58:26.901Z,18.10
2017-08-09T06:00:55.053Z,18.10
2017-08-09T06:03:23.232Z,18.10
2017-08-09T06:05:51.405Z,18.20
2017-08-09T06:08:19.559Z,18.40
2017-08-09T06:10:47.771Z,18.50
2017-08-09T06:13:15.951Z,18.50
2017-08-09T06:15:44.114Z,18.70
2017-08-09T06:18:12.294Z,18.70
2017-08-09T06:20:40.452Z,18.70
2017-08-09T06:23:08.626Z,18.70
2017-08-09T06:25:36.811Z,18.70
2017-08-09T06:28:04.971Z,18.90
2017-08-09T06:30:33.157Z,19.00
2017-08-09T06:33:01.339Z,19.30
2017-08-09T06:35:29.495Z,19.40
2017-08-09T06:37:57.644Z,19.50
2017-08-09T06:40:25.826Z,19.50
2017-08-09T06:42:53.981Z,19.60
2017-08-09T06:45:22.158Z,19.60
2017-08-09T06:47:50.362Z,19.80
2017-08-09T06:50:18.521Z,19.80
2017-08-09T06:52:46.671Z,19.80
2017-08-09T06:55:15.630Z,20.00
2017-08-09T06:57:43.779Z,20.00
2017-08-09T07:00:11.934Z,19.90
2017-08-09T07:02:40.130Z,20.00
2017-08-09T07:05:08.304Z,19.90
2017-08-09T07:07:36.474Z,20.10
2017-08-09T07:10:04.661Z,20.10
2017-08-09T07:12:32.826Z,20.30
2017-08-09T07:15:00.989Z,20.50
2017-08-09T07:17:29.192Z,20.60
2017-08-09T07:19:57.352Z,20.50
2017-08-09T07:22:25.533Z,20.80
2017-08-09T07:24:53.711Z,20.80
2017-08-09T07:27:21.884Z,21.10
2017-08-09T07:29:50.050Z,21.20
2017-08-09T07:32:18.242Z,21.50
2017-08-09T07:34:46.392Z,21.80
2017-08-09T07:37:14.557Z,21.90
2017-08-09T07:39:42.731Z,22.00
2017-08-09T07:42:10.902Z,21.90
2017-08-09T07:44:39.077Z,21.80
2017-08-09T07:47:07.246Z,21.90
2017-08-09T07:49:35.393Z,21.90
2017-08-09T07:52:04.314Z,22.20
2017-08-09T07:54:32.499Z,22.20
2017-08-09T07:57:00.676Z,22.10
2017-08-09T07:59:28.849Z,22.00
2017-08-09T08:01:57.034Z,21.80
2017-08-09T08:04:25.190Z,22.00
2017-08-09T08:06:53.361Z,22.50
2017-08-09T08:09:21.561Z,22.70
2017-08-09T08:11:49.710Z,23.20
2017-08-09T08:14:17.863Z,23.60
2017-08-09T08:16:46.833Z,24.30
2017-08-09T08:19:14.989Z,24.30
2017-08-09T08:21:43.142Z,25.10
2017-08-09T08:24:11.324Z,26.20
2017-08-09T08:26:39.494Z,27.30
2017-08-09T08:29:07.637Z,28.10
2017-08-09T08:31:35.835Z,28.30
2017-08-09T08:34:03.993Z,28.30
2017-08-09T08:36:32.159Z,28.40
2017-08-09T08:39:00.378Z,28.70
2017-08-09T08:41:28.531Z,28.50
2017-08-09T08:43:56.690Z,29.00
2017-08-09T08:46:24.881Z,29.50
2017-08-09T08:48:53.035Z,29.90
2017-08-09T08:51:21.216Z,29.80
2017-08-09T08:53:49.402Z,29.90
2017-08-09T08:56:17.562Z,30.20
2017-08-09T08:58:45.718Z,30.20
2017-08-09T09:01:13.930Z,29.80
2017-08-09T09:03:42.102Z,29.80
2017-08-09T09:06:10.281Z,30.20
2017-08-09T09:08:38.454Z,30.30
2017-08-09T09:11:06.607Z,29.80
2017-08-09T09:13:34.783Z,30.10
2017-08-09T09:16:02.990Z,31.30
2017-08-09T09:18:31.144Z,32.70
2017-08-09T09:20:59.307Z,33.30
2017-08-09T09:23:27.506Z,32.90
2017-08-09T09:25:55.677Z,32.50
2017-08-09T09:28:23.844Z,32.80
2017-08-09T09:30:52.046Z,31.80
2017-08-09T09:33:20.226Z,30.00
2017-08-09T09:35:48.385Z,28.10
2017-08-09T09:38:16.567Z,26.80
2017-08-09T09:40:44.718Z,26.10
2017-08-09T09:43:12.896Z,25.80
2017-08-09T09:45:41.105Z,26.00
2017-08-09T09:48:09.290Z,26.40
2017-08-09T09:50:37.447Z,26.50
2017-08-09T09:53:05.642Z,26.70
2017-08-09T09:55:33.826Z,26.60
2017-08-09T09:58:02.761Z,25.20
2017-08-09T10:00:30.955Z,25.20
2017-08-09T10:02:59.148Z,25.10
2017-08-09T10:05:27.339Z,24.60
2017-08-09T10:07:55.549Z,24.50
2017-08-09T10:10:23.703Z,24.60
2017-08-09T10:12:52.690Z,25.20
2017-08-09T10:15:20.871Z,25.20
2017-08-09T10:17:49.791Z,25.10
2017-08-09T10:20:17.951Z,25.10
2017-08-09T10:22:46.139Z,25.60
2017-08-09T10:25:14.299Z,25.70
2017-08-09T10:27:42.461Z,25.60
2017-08-09T10:30:11.432Z,24.80
2017-08-09T10:32:39.604Z,24.80
2017-08-09T10:35:07.781Z,24.60
2017-08-09T10:37:36.260Z,24.60
2017-08-09T10:40:04.436Z,24.60
2017-08-09T10:42:32.612Z,24.60
2017-08-09T10:45:00.798Z,24.60
2017-08-09T10:47:28.973Z,24.10
2017-08-09T10:49:57.135Z,23.90
2017-08-09T10:52:25.323Z,23.50
2017-08-09T10:54:53.499Z,23.40
2017-08-09T10:57:21.651Z,23.60
2017-08-09T10:59:49.856Z,23.90
2017-08-09T11:02:19.410Z,24.20
2017-08-09T11:04:47.571Z,24.20
2017-08-09T11:07:15.764Z,24.60
2017-08-09T11:09:43.942Z,26.00
2017-08-09T11:12:12.118Z,26.80
2017-08-09T11:14:40.307Z,26.50
2017-08-09T11:17:08.479Z,26.00
2017-08-09T11:19:36.653Z,25.60
2017-08-09T11:22:04.863Z,25.10
2017-08-09T11:24:33.808Z,24.40
2017-08-09T11:27:01.984Z,24.40
2017-08-09T11:29:30.203Z,24.20
2017-08-09T11:31:59.127Z,23.70
2017-08-09T11:34:27.325Z,23.70
2017-08-09T11:36:55.520Z,23.50
2017-08-09T11:39:23.697Z,23.40
2017-08-09T11:41:51.869Z,23.50
2017-08-09T11:44:20.076Z,23.60
2017-08-09T11:46:48.237Z,24.80
2017-08-09T11:49:17.181Z,27.50
2017-08-09T11:51:45.392Z,27.50
2017-08-09T11:54:13.577Z,27.80
2017-08-09T11:56:41.730Z,27.80
2017-08-09T11:59:09.910Z,28.20
2017-08-09T12:01:38.069Z,28.60
2017-08-09T12:04:06.226Z,28.20
2017-08-09T12:06:34.426Z,27.50
2017-08-09T12:09:02.601Z,26.90
2017-08-09T12:11:30.782Z,26.40
2017-08-09T12:13:58.972Z,26.20
2017-08-09T12:16:27.135Z,26.00
2017-08-09T12:18:55.312Z,26.20
2017-08-09T12:21:23.521Z,26.60
2017-08-09T12:23:51.683Z,26.30
2017-08-09T12:26:20.631Z,25.80
2017-08-09T12:28:48.811Z,25.80
2017-08-09T12:31:16.976Z,25.90
2017-08-09T12:33:45.136Z,26.40
2017-08-09T12:36:13.322Z,26.80
2017-08-09T12:38:41.501Z,27.10
2017-08-09T12:41:09.678Z,27.00
2017-08-09T12:43:37.882Z,27.10
2017-08-09T12:46:06.062Z,26.90
2017-08-09T12:48:35.009Z,26.60
2017-08-09T12:51:03.199Z,26.60
2017-08-09T12:53:31.360Z,26.40
2017-08-09T12:55:59.539Z,26.40
2017-08-09T12:58:27.746Z,26.40
2017-08-09T13:00:55.920Z,26.70
2017-08-09T13:03:24.088Z,26.30
2017-08-09T13:05:52.271Z,26.40
2017-08-09T13:08:21.243Z,26.30
2017-08-09T13:10:49.407Z,26.30
2017-08-09T13:13:17.595Z,26.20
2017-08-09T13:15:45.755Z,26.10
2017-08-09T13:18:13.926Z,25.90
2017-08-09T13:20:42.119Z,25.30
2017-08-09T13:23:10.280Z,25.10
2017-08-09T13:25:38.455Z,25.10
2017-08-09T13:28:06.646Z,25.10
2017-08-09T13:30:35.002Z,25.20
2017-08-09T13:33:03.180Z,25.10
2017-08-09T13:35:31.385Z,24.90
2017-08-09T13:37:59.565Z,25.00
2017-08-09T13:40:27.746Z,24.80
2017-08-09T13:42:55.934Z,24.80
2017-08-09T13:45:24.855Z,25.40
2017-08-09T13:47:53.006Z,25.40
2017-08-09T13:50:21.973Z,25.70
2017-08-09T13:52:50.145Z,25.70
2017-08-09T13:55:18.328Z,25.50
2017-08-09T13:57:46.525Z,25.20
2017-08-09T14:00:15.460Z,25.00
2017-08-09T14:02:43.615Z,25.00
2017-08-09T14:05:11.792Z,24.90
2017-08-09T14:07:39.940Z,24.90
2017-08-09T14:10:08.878Z,25.10
2017-08-09T14:12:37.076Z,25.10
2017-08-09T14:15:05.242Z,25.10
2017-08-09T14:17:33.387Z,25.10
2017-08-09T14:20:01.581Z,25.30
2017-08-09T14:22:29.764Z,25.30
2017-08-09T14:24:57.930Z,25.10
2017-08-09T14:27:26.131Z,25.10
2017-08-09T14:29:54.283Z,25.20
2017-08-09T14:32:22.459Z,25.20
2017-08-09T14:34:50.644Z,25.20
2017-08-09T14:37:18.809Z,25.00
2017-08-09T14:39:46.961Z,24.90
2017-08-09T14:42:15.150Z,24.80
2017-08-09T14:44:43.318Z,24.60
2017-08-09T14:47:11.479Z,24.40
2017-08-09T14:49:39.658Z,24.20
2017-08-09T14:52:07.826Z,24.00
2017-08-09T14:54:35.973Z,24.10
2017-08-09T14:57:04.911Z,24.50
2017-08-09T14:59:33.093Z,24.50
2017-08-09T15:02:01.238Z,24.70
2017-08-09T15:04:29.445Z,24.40
2017-08-09T15:06:57.609Z,24.40
2017-08-09T15:09:25.773Z,24.40
2017-08-09T15:11:53.962Z,24.30
2017-08-09T15:14:22.126Z,24.40
2017-08-09T15:16:50.305Z,24.60
2017-08-09T15:19:18.512Z,24.50
2017-08-09T15:21:46.697Z,24.50
2017-08-09T15:24:14.872Z,24.30
2017-08-09T15:26:43.073Z,24.00
2017-08-09T15:29:11.242Z,23.90
2017-08-09T15:31:40.154Z,23.60
2017-08-09T15:34:08.328Z,23.50
2017-08-09T15:36:36.474Z,23.70
2017-08-09T15:39:05.410Z,23.70
2017-08-09T15:41:33.593Z,23.70
2017-08-09T15:44:01.738Z,23.70
2017-08-09T15:46:29.907Z,23.70
2017-08-09T15:48:58.083Z,23.90
2017-08-09T15:51:26.246Z,23.90
2017-08-09T15:53:55.177Z,24.10
2017-08-09T15:56:23.357Z,24.00
2017-08-09T15:58:51.519Z,24.20
2017-08-09T16:01:19.690Z,24.10
2017-08-09T16:03:47.881Z,24.10
2017-08-09T16:06:16.049Z,24.00
2017-08-09T16:08:44.202Z,23.90
2017-08-09T16:11:12.382Z,23.80
2017-08-09T16:13:40.544Z,23.80
2017-08-09T16:16:08.710Z,23.50
2017-08-09T16:18:37.670Z,23.60
2017-08-09T16:21:05.821Z,23.60
2017-08-09T16:23:33.973Z,23.60
2017-08-09T16:26:02.147Z,23.60
2017-08-09T16:28:30.309Z,23.70
2017-08-09T16:30:58.484Z,23.80
2017-08-09T16:33:26.676Z,23.80
2017-08-09T16:35:54.885Z,23.90
2017-08-09T16:38:23.035Z,23.80
2017-08-09T16:40:51.219Z,23.70
2017-08-09T16:43:19.372Z,23.70
2017-08-09T16:45:47.546Z,23.60
2017-08-09T16:48:15.737Z,23.60
2017-08-09T16:50:43.909Z,23.60
2017-08-09T16:53:12.064Z,23.40
2017-08-09T16:55:40.238Z,23.30
2017-08-09T16:58:08.407Z,23.40
2017-08-09T17:00:36.555Z,23.30
2017-08-09T17:03:05.529Z,23.40
2017-08-09T17:05:33.683Z,23.40
2017-08-09T17:08:01.834Z,23.50
2017-08-09T17:10:30.034Z,23.50
2017-08-09T17:12:58.203Z,23.40
2017-08-09T17:15:26.377Z,23.30
2017-08-09T17:17:54.560Z,23.20
2017-08-09T17:20:22.737Z,23.20
2017-08-09T17:22:50.882Z,23.10
2017-08-09T17:25:19.073Z,23.10
2017-08-09T17:27:47.238Z,23.20
2017-08-09T17:30:15.396Z,23.20
2017-08-09T17:32:43.570Z,23.30
2017-08-09T17:35:11.741Z,23.20
2017-08-09T17:37:39.893Z,23.30
2017-08-09T17:40:08.836Z,23.50
2017-08-09T17:42:36.991Z,23.50
2017-08-09T17:45:05.163Z,23.50
2017-08-09T17:47:33.346Z,23.40
2017-08-09T17:50:01.502Z,23.30
2017-08-09T17:52:29.643Z,23.20
2017-08-09T17:54:57.814Z,23.20
2017-08-09T17:57:25.966Z,23.20
2017-08-09T17:59:54.129Z,23.10
2017-08-09T18:02:22.329Z,23.20
2017-08-09T18:04:50.493Z,23.00
2017-08-09T18:07:18.643Z,22.90
2017-08-09T18:09:46.825Z,22.90
2017-08-09T18:12:14.990Z,22.90
2017-08-09T18:14:43.132Z,22.80
2017-08-09T18:17:12.070Z,22.60
2017-08-09T18:19:40.218Z,22.60
2017-08-09T18:22:08.372Z,22.60
2017-08-09T18:24:37.343Z,22.50
2017-08-09T18:27:05.513Z,22.50
2017-08-09T18:29:33.689Z,22.50
2017-08-09T18:32:01.888Z,22.50
2017-08-09T18:34:30.828Z,22.50
2017-08-09T18:36:58.993Z,22.40
2017-08-09T18:39:27.172Z,22.40
2017-08-09T18:41:55.337Z,22.40
2017-08-09T18:44:23.498Z,22.40
2017-08-09T18:46:51.675Z,22.40
2017-08-09T18:49:19.840Z,22.30
2017-08-09T18:51:47.999Z,22.30
2017-08-09T18:54:16.943Z,22.20
2017-08-09T18:56:45.111Z,22.20
2017-08-09T18:59:13.283Z,22.20
2017-08-09T19:01:41.460Z,22.20
2017-08-09T19:04:09.623Z,22.20
2017-08-09T19:06:37.793Z,22.10
2017-08-09T19:09:05.990Z,22.10
2017-08-09T19:11:34.153Z,22.20
2017-08-09T19:14:02.305Z,22.10
2017-08-09T19:16:30.491Z,22.10
2017-08-09T19:18:58.661Z,22.00
2017-08-09T19:21:26.823Z,22.00
2017-08-09T19:23:55.015Z,21.90
2017-08-09T19:26:23.181Z,21.90
2017-08-09T19:28:51.330Z,21.80
2017-08-09T19:31:20.279Z,21.80
2017-08-09T19:33:48.426Z,21.80
2017-08-09T19:36:16.585Z,21.80
2017-08-09T19:38:45.535Z,21.60
2017-08-09T19:41:13.704Z,21.70
2017-08-09T19:43:41.880Z,21.60
2017-08-09T19:46:10.062Z,21.60
2017-08-09T19:48:38.219Z,21.60
2017-08-09T19:51:06.386Z,21.50
2017-08-09T19:53:34.575Z,21.50
2017-08-09T19:56:02.753Z,21.40
2017-08-09T19:58:30.910Z,21.40
2017-08-09T20:00:59.100Z,21.40
2017-08-09T20:03:27.270Z,21.30
2017-08-09T20:05:55.427Z,21.30
2017-08-09T20:08:23.637Z,21.30
2017-08-09T20:10:51.788Z,21.20
2017-08-09T20:13:19.967Z,21.20
2017-08-09T20:15:48.150Z,21.20
2017-08-09T20:18:16.311Z,21.10
2017-08-09T20:20:44.490Z,21.00
2017-08-09T20:23:12.670Z,21.00
2017-08-09T20:25:40.826Z,21.00
2017-08-09T20:28:08.978Z,21.00
2017-08-09T20:30:37.178Z,20.90
2017-08-09T20:33:05.350Z,21.00
2017-08-09T20:35:33.530Z,20.90
2017-08-09T20:38:01.718Z,20.80
2017-08-09T20:40:29.894Z,20.80
2017-08-09T20:42:58.043Z,20.80
2017-08-09T20:45:26.241Z,20.70
2017-08-09T20:47:54.391Z,20.70
2017-08-09T20:50:22.574Z,20.60
2017-08-09T20:52:50.773Z,20.60
2017-08-09T20:55:18.954Z,20.50
2017-08-09T20:57:47.125Z,20.50
2017-08-09T21:00:15.325Z,20.50
2017-08-09T21:02:44.247Z,20.40
2017-08-09T21:05:12.420Z,20.40
2017-08-09T21:07:40.623Z,20.40
2017-08-09T21:10:08.790Z,20.30
2017-08-09T21:12:36.963Z,20.30
2017-08-09T21:15:05.143Z,20.30
2017-08-09T21:17:33.300Z,20.30
2017-08-09T21:20:01.441Z,20.20
2017-08-09T21:22:30.398Z,20.10
2017-08-09T21:24:58.577Z,20.10
2017-08-09T21:27:26.727Z,20.10
2017-08-09T21:29:54.912Z,20.00
2017-08-09T21:32:23.083Z,20.00
2017-08-09T21:34:51.255Z,20.00
2017-08-09T21:37:19.453Z,20.00
2017-08-09T21:39:47.624Z,20.00
2017-08-09T21:42:15.794Z,20.00
2017-08-09T21:44:43.986Z,19.90
2017-08-09T21:47:12.163Z,19.90
2017-08-09T21:49:40.337Z,19.90
2017-08-09T21:52:08.516Z,19.80
2017-08-09T21:54:36.693Z,19.70
2017-08-09T21:57:04.875Z,19.70
2017-08-09T21:59:33.853Z,19.60
2017-08-09T22:02:02.011Z,19.60
2017-08-09T22:04:30.189Z,19.60
2017-08-09T22:06:58.401Z,19.60
2017-08-09T22:09:27.319Z,19.50
2017-08-09T22:11:55.468Z,19.50
2017-08-09T22:14:24.419Z,19.30
2017-08-09T22:16:52.597Z,19.30
2017-08-09T22:19:20.768Z,19.30
2017-08-09T22:21:48.975Z,19.30
2017-08-09T22:24:17.147Z,19.20
2017-08-09T22:26:45.321Z,19.20
2017-08-09T22:29:13.507Z,19.20
2017-08-09T22:31:42.447Z,19.10
2017-08-09T22:34:10.612Z,19.10
2017-08-09T22:36:38.811Z,19.10
2017-08-09T22:39:06.965Z,19.10
2017-08-09T22:41:35.118Z,19.00
2017-08-09T22:44:03.307Z,18.90
2017-08-09T22:46:31.464Z,18.90
2017-08-09T22:48:59.629Z,18.90
2017-08-09T22:51:28.577Z,18.90
2017-08-09T22:53:56.754Z,18.90
2017-08-09T22:56:24.923Z,18.90
2017-08-09T22:58:53.130Z,18.80
2017-08-09T23:01:22.075Z,18.70
2017-08-09T23:03:50.229Z,18.70
2017-08-09T23:06:18.428Z,18.70
2017-08-09T23:08:46.605Z,18.70
2017-08-09T23:11:14.758Z,18.70
2017-08-09T23:13:42.965Z,18.70
2017-08-09T23:16:11.138Z,18.70
2017-08-09T23:18:39.317Z,18.70
2017-08-09T23:21:07.498Z,18.70
2017-08-09T23:23:35.654Z,18.60
2017-08-09T23:26:03.815Z,18.60
2017-08-09T23:28:32.043Z,18.60
2017-08-09T23:31:00.221Z,18.60
2017-08-09T23:33:29.161Z,18.60
2017-08-09T23:35:57.343Z,18.60
2017-08-09T23:38:25.512Z,18.60
2017-08-09T23:40:53.670Z,18.50
2017-08-09T23:43:21.880Z,18.60
2017-08-09T23:45:50.056Z,18.50
2017-08-09T23:48:18.221Z,18.40
2017-08-09T23:50:46.417Z,18.40
2017-08-09T23:53:14.593Z,18.40
2017-08-09T23:55:42.742Z,18.40
2017-08-09T23:58:10.938Z,18.40
